Time;durP1;ratioP1;P1;durP2;ratioP2;P2;SDS_P1;SDS_P2;PMS_P1;PMS_P2;Temp;Humidity;BMP_temperature;BMP_pressure;BME280_temperature;BME280_humidity;BME280_pressure;Samples;Min_cycle;Max_cycle;Signal;HPM_P1;HPM_P2
2022/03/09 00:01:14;;;;;;;3.80;3.17;;;;;;;;;;5078090;28;20197;-82
2022/03/09 00:03:41;;;;;;;3.72;3.00;;;;;;;;;;5077607;28;20201;-81
2022/03/09 00:06:09;;;;;;;2.78;2.58;;;;;;;;;;5077367;28;20576;-82
2022/03/09 00:08:36;;;;;;;2.70;2.50;;;;;;;;;;5076866;28;20221;-81
2022/03/09 00:11:05;;;;;;;3.40;3.10;;;;;;;;;;5076617;28;20201;-82
2022/03/09 00:13:32;;;;;;;3.25;2.80;;;;;;;;;;5076341;28;20209;-82
2022/03/09 00:16:00;;;;;;;3.22;2.95;;;;;;;;;;5076941;28;20228;-81
2022/03/09 00:18:27;;;;;;;4.13;3.72;;;;;;;;;;5076900;28;20228;-82
2022/03/09 00:20:54;;;;;;;3.17;2.88;;;;;;;;;;5077253;28;20232;-82
2022/03/09 00:23:22;;;;;;;2.67;2.38;;;;;;;;;;5076359;28;20197;-82
2022/03/09 00:25:50;;;;;;;3.60;3.17;;;;;;;;;;5077188;28;20201;-81
2022/03/09 00:28:18;;;;;;;3.08;2.78;;;;;;;;;;5076977;28;20232;-82
2022/03/09 00:30:45;;;;;;;2.60;2.40;;;;;;;;;;5076907;28;20649;-82
2022/03/09 00:33:13;;;;;;;2.60;2.40;;;;;;;;;;5075996;28;20217;-81
2022/03/09 00:35:42;;;;;;;2.47;2.28;;;;;;;;;;5077358;28;20181;-82
2022/03/09 00:38:09;;;;;;;2.67;2.28;;;;;;;;;;5077170;28;20316;-82
2022/03/09 00:40:37;;;;;;;2.92;2.70;;;;;;;;;;5077085;28;20200;-81
2022/03/09 00:43:04;;;;;;;3.90;3.50;;;;;;;;;;5076764;28;20584;-81
2022/03/09 00:45:33;;;;;;;3.53;3.22;;;;;;;;;;5077234;28;20274;-81
2022/03/09 00:48:00;;;;;;;3.28;2.83;;;;;;;;;;5076592;28;20224;-81
2022/03/09 00:50:27;;;;;;;4.70;3.90;;;;;;;;;;5076663;28;20207;-82
2022/03/09 00:52:55;;;;;;;3.88;3.58;;;;;;;;;;5075842;28;20209;-81
2022/03/09 00:55:22;;;;;;;3.75;3.40;;;;;;;;;;5076292;28;20661;-82
2022/03/09 00:57:49;;;;;;;3.58;2.97;;;;;;;;;;5075588;28;20232;-80
2022/03/09 01:00:17;;;;;;;4.28;3.42;;;;;;;;;;5076159;28;20213;-80
2022/03/09 01:02:47;;;;;;;4.65;4.25;;;;;;;;;;5075907;28;20212;-81
2022/03/09 01:05:15;;;;;;;4.28;3.70;;;;;;;;;;5076410;28;20364;-81
2022/03/09 01:07:43;;;;;;;3.15;2.95;;;;;;;;;;5075846;28;20224;-81
2022/03/09 01:10:11;;;;;;;4.70;3.60;;;;;;;;;;5075895;28;20205;-82
2022/03/09 01:12:39;;;;;;;4.85;3.85;;;;;;;;;;5076523;28;20236;-82
2022/03/09 01:15:08;;;;;;;4.45;3.67;;;;;;;;;;5075756;28;20208;-81
2022/03/09 01:17:35;;;;;;;3.88;3.28;;;;;;;;;;5075872;28;20696;-81
2022/03/09 01:20:05;;;;;;;4.00;3.10;;;;;;;;;;5076005;28;20205;-81
2022/03/09 01:22:32;;;;;;;3.40;3.10;;;;;;;;;;5075792;28;20201;-80
2022/03/09 01:25:00;;;;;;;3.70;2.78;;;;;;;;;;5075642;28;20197;-82
2022/03/09 01:27:27;;;;;;;3.58;3.03;;;;;;;;;;5076005;28;20228;-81
2022/03/09 01:29:54;;;;;;;3.90;3.38;;;;;;;;;;5075857;28;20583;-82
2022/03/09 01:32:21;;;;;;;3.72;2.75;;;;;;;;;;5074927;28;20205;-82
2022/03/09 01:34:49;;;;;;;4.40;3.30;;;;;;;;;;5075757;28;20209;-81
2022/03/09 01:37:18;;;;;;;3.90;3.55;;;;;;;;;;5075653;28;20252;-82
2022/03/09 01:39:45;;;;;;;4.35;3.72;;;;;;;;;;5076035;28;20258;-82
2022/03/09 01:42:13;;;;;;;4.50;3.53;;;;;;;;;;5075612;28;20205;-82
2022/03/09 01:44:40;;;;;;;4.63;3.70;;;;;;;;;;5075978;28;20201;-82
2022/03/09 01:47:08;;;;;;;3.72;3.38;;;;;;;;;;5075735;28;20228;-81
2022/03/09 01:49:36;;;;;;;3.83;3.38;;;;;;;;;;5075862;28;20211;-81
2022/03/09 01:52:05;;;;;;;3.78;3.25;;;;;;;;;;5075736;28;20250;-81
2022/03/09 01:54:34;;;;;;;3.83;3.53;;;;;;;;;;5075478;28;20616;-81
2022/03/09 01:57:01;;;;;;;3.40;2.55;;;;;;;;;;5075778;28;20224;-80
2022/03/09 01:59:29;;;;;;;2.75;2.55;;;;;;;;;;5076293;28;20239;-81
2022/03/09 02:01:56;;;;;;;3.60;2.78;;;;;;;;;;5075710;28;20595;-81
2022/03/09 02:04:23;;;;;;;3.13;2.83;;;;;;;;;;5074670;28;20216;-81
2022/03/09 02:06:51;;;;;;;2.00;1.80;;;;;;;;;;5074760;28;20229;-82
2022/03/09 02:12:05;;;;;;;3.08;2.58;;;;;;;;;;5074965;28;20251;-82
2022/03/09 02:14:35;;;;;;;2.95;2.38;;;;;;;;;;5074380;28;20205;-82
2022/03/09 02:17:05;;;;;;;2.65;2.45;;;;;;;;;;5074747;28;20229;-81
2022/03/09 02:19:33;;;;;;;4.35;3.45;;;;;;;;;;5066102;28;20205;-81
2022/03/09 02:22:11;;;;;;;3.65;3.30;;;;;;;;;;5075050;28;20664;-81
2022/03/09 02:24:40;;;;;;;4.38;3.95;;;;;;;;;;5068830;28;20234;-82
2022/03/09 02:27:08;;;;;;;4.93;4.45;;;;;;;;;;5062062;28;20217;-82
2022/03/09 02:29:35;;;;;;;7.38;4.75;;;;;;;;;;5062638;28;20216;-82
2022/03/09 02:32:03;;;;;;;4.50;3.92;;;;;;;;;;5075561;28;20203;-81
2022/03/09 02:34:30;;;;;;;3.38;3.08;;;;;;;;;;5068061;28;20209;-81
2022/03/09 02:36:58;;;;;;;3.63;2.75;;;;;;;;;;5075051;28;20225;-82
2022/03/09 02:39:26;;;;;;;3.85;3.17;;;;;;;;;;5075023;28;20217;-82
2022/03/09 02:41:55;;;;;;;3.67;3.38;;;;;;;;;;5074913;28;20237;-81
2022/03/09 02:44:22;;;;;;;4.22;3.83;;;;;;;;;;5061786;28;20208;-81
2022/03/09 02:46:50;;;;;;;4.47;3.63;;;;;;;;;;5075112;28;20221;-82
2022/03/09 02:49:17;;;;;;;5.13;3.85;;;;;;;;;;5075321;28;20560;-81
2022/03/09 02:51:45;;;;;;;4.28;3.88;;;;;;;;;;5069148;28;20205;-81
2022/03/09 02:54:12;;;;;;;5.07;4.47;;;;;;;;;;5075457;28;20189;-81
2022/03/09 02:56:39;;;;;;;4.60;4.10;;;;;;;;;;5074894;28;20205;-82
2022/03/09 02:59:08;;;;;;;4.35;3.95;;;;;;;;;;5068426;28;20241;-81
2022/03/09 03:01:35;;;;;;;4.90;3.90;;;;;;;;;;5062606;28;20892;-81
2022/03/09 03:04:03;;;;;;;6.75;3.72;;;;;;;;;;5075998;28;20208;-81
2022/03/09 03:06:30;;;;;;;4.45;3.65;;;;;;;;;;5075288;28;20201;-82
2022/03/09 03:08:58;;;;;;;3.55;3.25;;;;;;;;;;5068695;28;20586;-81
2022/03/09 03:11:25;;;;;;;3.83;3.10;;;;;;;;;;5055442;28;20205;-81
2022/03/09 03:13:52;;;;;;;3.85;2.95;;;;;;;;;;5068314;28;20232;-81
2022/03/09 03:16:21;;;;;;;3.45;3.03;;;;;;;;;;5076512;28;20201;-82
2022/03/09 03:18:48;;;;;;;3.17;2.70;;;;;;;;;;5067414;28;20834;-82
2022/03/09 03:21:16;;;;;;;4.07;3.78;;;;;;;;;;5057718;28;20662;-81
2022/03/09 03:23:43;;;;;;;3.20;2.90;;;;;;;;;;5071641;28;20209;-80
2022/03/09 03:26:10;;;;;;;3.78;3.42;;;;;;;;;;5078506;28;20205;-81
2022/03/09 03:28:38;;;;;;;3.33;3.05;;;;;;;;;;5078680;28;20602;-82
2022/03/09 03:31:06;;;;;;;3.70;3.40;;;;;;;;;;5078452;28;20216;-81
2022/03/09 03:33:34;;;;;;;4.05;3.58;;;;;;;;;;5078945;28;20200;-82
2022/03/09 03:36:01;;;;;;;3.83;3.28;;;;;;;;;;5077988;28;20258;-82
2022/03/09 03:38:29;;;;;;;3.92;3.55;;;;;;;;;;5078162;28;20845;-82
2022/03/09 03:40:56;;;;;;;3.55;3.25;;;;;;;;;;5078455;28;20208;-82
2022/03/09 03:43:23;;;;;;;5.03;4.43;;;;;;;;;;5078445;28;20209;-82
2022/03/09 03:45:51;;;;;;;5.00;4.40;;;;;;;;;;5078601;28;20572;-82
2022/03/09 03:48:18;;;;;;;7.40;5.20;;;;;;;;;;5078585;28;20693;-82
2022/03/09 03:50:46;;;;;;;6.88;5.03;;;;;;;;;;5078003;28;20282;-82
2022/03/09 03:53:14;;;;;;;6.45;4.63;;;;;;;;;;5078092;28;20212;-82
2022/03/09 03:55:41;;;;;;;4.90;4.18;;;;;;;;;;5078324;28;20197;-81
2022/03/09 03:58:08;;;;;;;4.72;4.18;;;;;;;;;;5077981;28;20224;-82
2022/03/09 04:00:36;;;;;;;5.10;4.07;;;;;;;;;;5078486;28;20209;-82
2022/03/09 04:03:03;;;;;;;5.05;3.80;;;;;;;;;;5078300;28;20654;-82
2022/03/09 04:05:31;;;;;;;3.63;3.22;;;;;;;;;;5078312;28;20201;-82
2022/03/09 04:07:59;;;;;;;4.15;3.63;;;;;;;;;;5078583;28;20225;-81
2022/03/09 04:10:27;;;;;;;4.07;3.50;;;;;;;;;;5077362;28;20200;-82
2022/03/09 04:12:54;;;;;;;5.97;3.70;;;;;;;;;;5078831;28;20532;-82
2022/03/09 04:15:22;;;;;;;9.57;3.80;;;;;;;;;;5077798;28;20209;-82
2022/03/09 04:17:50;;;;;;;5.00;3.75;;;;;;;;;;5078241;28;20217;-82
2022/03/09 04:20:17;;;;;;;4.78;3.75;;;;;;;;;;5077811;28;20229;-82
2022/03/09 04:22:45;;;;;;;3.85;3.15;;;;;;;;;;5078265;28;20563;-82
2022/03/09 04:25:14;;;;;;;4.70;3.63;;;;;;;;;;5078205;28;20201;-81
2022/03/09 04:27:41;;;;;;;3.40;3.10;;;;;;;;;;5077582;28;20715;-82
2022/03/09 04:30:10;;;;;;;3.75;3.40;;;;;;;;;;5077971;28;20197;-83
2022/03/09 04:32:38;;;;;;;7.63;4.25;;;;;;;;;;5077172;28;20201;-82
2022/03/09 04:35:07;;;;;;;5.60;4.80;;;;;;;;;;5078012;28;20236;-82
2022/03/09 04:37:34;;;;;;;5.30;3.92;;;;;;;;;;5077553;28;20236;-82
2022/03/09 04:40:02;;;;;;;4.90;4.40;;;;;;;;;;5077615;28;20220;-83
2022/03/09 04:45:08;;;;;;;3.40;3.10;;;;;;;;;;5058495;28;20192;-83
2022/03/09 04:47:36;;;;;;;2.83;2.63;;;;;;;;;;5076391;28;20244;-82
2022/03/09 04:50:03;;;;;;;3.85;2.80;;;;;;;;;;5099063;22;20221;-80
2022/03/09 04:52:30;;;;;;;3.28;2.80;;;;;;;;;;5073739;28;20204;-80
2022/03/09 04:54:58;;;;;;;4.78;3.97;;;;;;;;;;5074096;28;20228;-80
2022/03/09 04:57:25;;;;;;;4.50;3.60;;;;;;;;;;5073892;28;20204;-80
2022/03/09 04:59:53;;;;;;;4.70;3.47;;;;;;;;;;5073756;28;20225;-80
2022/03/09 05:02:21;;;;;;;3.45;3.15;;;;;;;;;;5072758;28;20216;-81
2022/03/09 05:04:48;;;;;;;4.20;3.28;;;;;;;;;;5073422;28;20604;-81
2022/03/09 05:07:15;;;;;;;3.88;3.45;;;;;;;;;;5073163;28;20209;-81
2022/03/09 05:09:43;;;;;;;4.60;4.03;;;;;;;;;;5073028;28;20263;-80
2022/03/09 05:12:10;;;;;;;5.25;3.65;;;;;;;;;;5072851;28;20216;-80
2022/03/09 05:14:37;;;;;;;5.28;3.17;;;;;;;;;;5073217;28;20232;-82
2022/03/09 05:17:06;;;;;;;2.53;2.33;;;;;;;;;;5061921;28;20205;-80
2022/03/09 05:19:33;;;;;;;3.30;2.45;;;;;;;;;;5054491;28;20759;-80
2022/03/09 05:22:01;;;;;;;2.00;1.88;;;;;;;;;;5053773;28;20580;-80
2022/03/09 05:24:28;;;;;;;3.25;2.95;;;;;;;;;;5053840;28;20229;-80
2022/03/09 05:26:55;;;;;;;3.08;2.53;;;;;;;;;;5054237;28;20214;-81
2022/03/09 05:29:23;;;;;;;3.10;2.83;;;;;;;;;;5054334;28;20209;-81
2022/03/09 05:31:50;;;;;;;2.80;2.60;;;;;;;;;;5053302;28;20255;-81
2022/03/09 05:34:19;;;;;;;2.40;2.25;;;;;;;;;;5053388;28;20237;-80
2022/03/09 05:36:46;;;;;;;2.83;2.63;;;;;;;;;;5053416;28;20209;-80
2022/03/09 05:39:13;;;;;;;3.45;2.92;;;;;;;;;;5071368;28;20233;-80
2022/03/09 05:41:41;;;;;;;3.20;2.78;;;;;;;;;;5061073;28;20216;-82
2022/03/09 05:44:08;;;;;;;3.65;2.67;;;;;;;;;;5052929;28;20703;-80
2022/03/09 05:46:36;;;;;;;3.35;3.03;;;;;;;;;;5053687;28;20574;-79
2022/03/09 05:49:03;;;;;;;3.78;3.45;;;;;;;;;;5054022;28;20210;-80
2022/03/09 05:51:32;;;;;;;3.97;3.35;;;;;;;;;;5050589;28;20210;-79
2022/03/09 05:53:59;;;;;;;4.45;3.15;;;;;;;;;;5046681;28;20230;-80
2022/03/09 05:56:26;;;;;;;3.78;3.25;;;;;;;;;;5052990;28;20210;-79
2022/03/09 05:58:54;;;;;;;2.97;2.63;;;;;;;;;;5046139;28;20224;-79
2022/03/09 06:01:23;;;;;;;4.97;3.67;;;;;;;;;;5071609;28;20286;-79
2022/03/09 06:03:50;;;;;;;4.32;3.90;;;;;;;;;;5046100;28;20232;-79
2022/03/09 06:06:18;;;;;;;4.07;3.40;;;;;;;;;;5052396;28;20619;-80
2022/03/09 06:08:46;;;;;;;4.22;3.83;;;;;;;;;;5052570;28;20216;-80
2022/03/09 06:11:14;;;;;;;4.22;3.63;;;;;;;;;;5045923;28;20206;-80
2022/03/09 06:13:41;;;;;;;3.92;3.50;;;;;;;;;;5070989;28;20712;-80
2022/03/09 06:16:08;;;;;;;3.85;3.42;;;;;;;;;;5052274;28;20853;-81
2022/03/09 06:18:35;;;;;;;4.75;3.90;;;;;;;;;;5065519;28;20205;-80
2022/03/09 06:21:03;;;;;;;4.68;4.18;;;;;;;;;;5072115;28;20225;-80
2022/03/09 06:23:30;;;;;;;4.00;3.60;;;;;;;;;;5045236;28;20209;-80
2022/03/09 06:25:59;;;;;;;3.20;2.90;;;;;;;;;;5046192;28;20217;-80
2022/03/09 06:28:27;;;;;;;3.50;3.20;;;;;;;;;;5043307;28;20288;-79
2022/03/09 06:30:54;;;;;;;2.53;2.33;;;;;;;;;;5059404;28;20576;-80
2022/03/09 06:33:21;;;;;;;2.80;2.42;;;;;;;;;;5062561;28;20201;-81
2022/03/09 06:35:49;;;;;;;3.50;2.92;;;;;;;;;;5052452;28;20500;-80
2022/03/09 06:38:16;;;;;;;2.55;2.35;;;;;;;;;;5053133;28;20212;-81
2022/03/09 06:40:44;;;;;;;2.47;2.20;;;;;;;;;;5052723;28;20232;-80
2022/03/09 06:43:12;;;;;;;3.55;3.25;;;;;;;;;;5052165;28;20205;-79
2022/03/09 06:45:40;;;;;;;4.72;4.20;;;;;;;;;;5053051;28;20194;-80
2022/03/09 06:48:07;;;;;;;3.75;3.45;;;;;;;;;;5052521;28;20206;-80
2022/03/09 06:50:35;;;;;;;4.10;3.70;;;;;;;;;;5054299;28;20219;-81
2022/03/09 06:53:02;;;;;;;4.03;3.72;;;;;;;;;;5056665;28;20237;-79
2022/03/09 06:55:30;;;;;;;4.43;4.03;;;;;;;;;;5058465;28;20225;-81
2022/03/09 06:57:57;;;;;;;4.18;3.83;;;;;;;;;;5057728;28;20520;-81
2022/03/09 07:00:26;;;;;;;4.78;4.38;;;;;;;;;;5057394;28;20701;-80
2022/03/09 07:02:53;;;;;;;4.43;4.03;;;;;;;;;;5056800;28;20263;-81
2022/03/09 07:05:21;;;;;;;4.15;3.65;;;;;;;;;;5057274;28;20225;-81
2022/03/09 07:07:48;;;;;;;5.45;4.45;;;;;;;;;;5056276;28;20205;-80
2022/03/09 07:10:15;;;;;;;5.88;4.65;;;;;;;;;;5057073;28;20203;-81
2022/03/09 07:12:45;;;;;;;4.82;4.35;;;;;;;;;;5056884;28;20205;-80
2022/03/09 07:15:13;;;;;;;5.53;4.57;;;;;;;;;;5056930;28;20225;-81
2022/03/09 07:17:43;;;;;;;5.78;4.65;;;;;;;;;;5056926;28;20215;-80
2022/03/09 07:20:12;;;;;;;5.18;4.47;;;;;;;;;;5056747;28;20264;-81
2022/03/09 07:22:40;;;;;;;5.57;4.97;;;;;;;;;;5056481;28;20202;-81
2022/03/09 07:25:09;;;;;;;5.47;4.65;;;;;;;;;;5057373;28;20226;-81
2022/03/09 07:27:36;;;;;;;4.95;4.45;;;;;;;;;;5056997;28;20662;-80
2022/03/09 07:30:05;;;;;;;7.28;5.07;;;;;;;;;;5057091;28;20665;-81
2022/03/09 07:32:33;;;;;;;6.63;5.18;;;;;;;;;;5056359;28;20224;-81
2022/03/09 07:35:01;;;;;;;4.45;4.03;;;;;;;;;;5057585;28;20229;-80
2022/03/09 07:37:29;;;;;;;4.80;4.40;;;;;;;;;;5056274;28;20205;-79
2022/03/09 07:39:56;;;;;;;5.50;4.88;;;;;;;;;;5057441;28;20206;-81
2022/03/09 07:42:24;;;;;;;5.22;4.50;;;;;;;;;;5061145;28;20228;-80
2022/03/09 07:44:51;;;;;;;4.70;4.05;;;;;;;;;;5086576;28;20229;-79
2022/03/09 07:47:20;;;;;;;6.00;4.90;;;;;;;;;;5089421;28;20247;-79
2022/03/09 07:49:47;;;;;;;5.75;4.88;;;;;;;;;;5074596;28;20217;-78
2022/03/09 07:52:15;;;;;;;4.32;3.92;;;;;;;;;;5071119;28;20205;-80
2022/03/09 07:54:43;;;;;;;5.18;4.78;;;;;;;;;;5072872;28;20226;-78
2022/03/09 07:57:10;;;;;;;6.30;4.40;;;;;;;;;;5068396;28;20213;-80
2022/03/09 07:59:37;;;;;;;5.65;4.90;;;;;;;;;;5059968;28;20633;-80
2022/03/09 08:02:05;;;;;;;5.70;5.10;;;;;;;;;;5057084;28;20698;-78
2022/03/09 08:04:33;;;;;;;7.38;6.15;;;;;;;;;;5057523;28;20226;-79
2022/03/09 08:07:00;;;;;;;6.95;6.22;;;;;;;;;;5058542;28;20232;-80
2022/03/09 08:09:29;;;;;;;6.95;5.72;;;;;;;;;;5057392;28;20216;-80
2022/03/09 08:11:56;;;;;;;8.52;7.65;;;;;;;;;;5057202;28;20202;-80
2022/03/09 08:14:23;;;;;;;8.52;6.80;;;;;;;;;;5061585;28;20230;-78
2022/03/09 08:16:51;;;;;;;9.65;6.25;;;;;;;;;;5070203;28;20202;-79
2022/03/09 08:19:18;;;;;;;7.55;6.75;;;;;;;;;;5069822;28;20265;-79
2022/03/09 08:21:45;;;;;;;7.30;6.10;;;;;;;;;;5070757;28;20225;-79
2022/03/09 08:24:13;;;;;;;7.07;6.00;;;;;;;;;;5066917;28;20233;-80
2022/03/09 08:26:41;;;;;;;8.73;6.30;;;;;;;;;;5059301;28;20209;-79
2022/03/09 08:29:08;;;;;;;8.57;6.78;;;;;;;;;;5060235;28;20578;-80
2022/03/09 08:31:36;;;;;;;7.47;6.68;;;;;;;;;;5061876;28;20815;-79
2022/03/09 08:34:03;;;;;;;7.10;6.22;;;;;;;;;;5058133;28;20275;-80
2022/03/09 08:36:30;;;;;;;5.88;5.20;;;;;;;;;;5056470;28;20653;-80
2022/03/09 08:38:58;;;;;;;7.70;5.75;;;;;;;;;;5055763;28;20212;-80
2022/03/09 08:41:25;;;;;;;6.75;6.05;;;;;;;;;;5055926;28;20222;-81
2022/03/09 08:43:54;;;;;;;6.32;5.72;;;;;;;;;;5056579;28;20240;-80
2022/03/09 08:46:21;;;;;;;6.20;5.55;;;;;;;;;;5056023;28;20205;-81
2022/03/09 08:48:49;;;;;;;5.65;4.72;;;;;;;;;;5057371;28;20209;-80
2022/03/09 08:51:20;;;;;;;7.88;4.55;;;;;;;;;;5056750;28;20212;-80
2022/03/09 08:53:47;;;;;;;6.25;5.50;;;;;;;;;;5055864;28;20236;-81
2022/03/09 08:56:15;;;;;;;4.53;4.03;;;;;;;;;;5056770;28;20210;-81
2022/03/09 08:58:43;;;;;;;5.20;4.57;;;;;;;;;;5057402;28;20228;-80
2022/03/09 09:01:12;;;;;;;4.93;4.43;;;;;;;;;;5055567;28;20234;-81
2022/03/09 09:03:39;;;;;;;4.82;4.22;;;;;;;;;;5055987;28;20221;-81
2022/03/09 09:06:06;;;;;;;5.03;4.53;;;;;;;;;;5055494;28;20205;-81
2022/03/09 09:08:34;;;;;;;5.10;4.60;;;;;;;;;;5056914;28;20216;-81
2022/03/09 09:11:01;;;;;;;4.75;4.35;;;;;;;;;;5057086;28;20208;-81
2022/03/09 09:13:28;;;;;;;5.03;4.55;;;;;;;;;;5055497;28;20206;-81
2022/03/09 09:15:56;;;;;;;10.43;5.10;;;;;;;;;;5056828;28;20213;-81
2022/03/09 09:18:25;;;;;;;5.30;4.72;;;;;;;;;;5057224;28;20231;-80
2022/03/09 09:20:54;;;;;;;5.82;4.50;;;;;;;;;;5056045;28;20206;-81
2022/03/09 09:23:22;;;;;;;6.82;5.57;;;;;;;;;;5056929;28;20283;-81
2022/03/09 09:25:49;;;;;;;6.20;4.65;;;;;;;;;;5058367;28;20623;-81
2022/03/09 09:28:17;;;;;;;5.05;4.55;;;;;;;;;;5057844;28;20205;-80
2022/03/09 09:30:45;;;;;;;4.82;4.03;;;;;;;;;;5056844;28;20269;-82
2022/03/09 09:33:12;;;;;;;5.65;5.15;;;;;;;;;;5057254;28;20201;-80
2022/03/09 09:35:41;;;;;;;4.70;4.22;;;;;;;;;;5056751;28;20592;-81
2022/03/09 09:38:09;;;;;;;6.70;4.05;;;;;;;;;;5056351;28;20202;-82
2022/03/09 09:40:40;;;;;;;4.75;3.50;;;;;;;;;;5057113;28;20296;-81
2022/03/09 09:43:09;;;;;;;4.18;3.72;;;;;;;;;;5056068;28;20230;-81
2022/03/09 09:45:36;;;;;;;4.63;4.10;;;;;;;;;;5054913;28;20712;-81
2022/03/09 09:48:06;;;;;;;5.47;4.93;;;;;;;;;;5054716;28;20209;-81
2022/03/09 09:50:36;;;;;;;4.70;4.30;;;;;;;;;;5055158;28;20686;-80
2022/03/09 09:53:06;;;;;;;4.13;3.75;;;;;;;;;;5055785;28;20201;-81
2022/03/09 09:55:34;;;;;;;5.53;4.15;;;;;;;;;;5056045;28;20222;-82
2022/03/09 09:58:04;;;;;;;4.05;3.65;;;;;;;;;;5055913;28;20678;-80
2022/03/09 10:00:31;;;;;;;4.05;3.70;;;;;;;;;;5074848;28;20216;-81
2022/03/09 10:02:59;;;;;;;2.97;2.72;;;;;;;;;;5075944;28;20228;-82
2022/03/09 10:05:27;;;;;;;3.08;2.88;;;;;;;;;;5075653;28;20701;-81
2022/03/09 10:08:16;;;;;;;3.88;3.55;;;;;;;;;;5074335;28;20209;-82
2022/03/09 10:10:56;;;;;;;3.75;3.30;;;;;;;;;;5074650;28;20201;-81
2022/03/09 10:13:26;;;;;;;3.42;3.13;;;;;;;;;;5074972;28;20263;-82
2022/03/09 10:16:11;;;;;;;4.82;4.22;;;;;;;;;;5075568;28;20207;-81
2022/03/09 10:18:39;;;;;;;3.17;2.63;;;;;;;;;;5055536;28;20241;-81
2022/03/09 10:21:12;;;;;;;4.05;3.53;;;;;;;;;;5074302;28;20258;-80
2022/03/09 10:23:58;;;;;;;4.50;3.17;;;;;;;;;;5058290;28;20221;-82
2022/03/09 10:26:27;;;;;;;4.10;3.70;;;;;;;;;;5055018;28;20207;-81
2022/03/09 10:29:04;;;;;;;4.25;3.70;;;;;;;;;;5055954;28;20209;-81
2022/03/09 10:31:40;;;;;;;3.88;3.53;;;;;;;;;;5054895;28;20216;-79
2022/03/09 10:34:10;;;;;;;3.25;2.95;;;;;;;;;;5056298;28;20217;-81
2022/03/09 10:36:38;;;;;;;3.03;2.72;;;;;;;;;;5055234;28;20212;-82
2022/03/09 10:39:18;;;;;;;3.63;3.33;;;;;;;;;;5074185;28;20653;-82
2022/03/09 10:41:46;;;;;;;3.63;3.33;;;;;;;;;;5073473;28;20248;-84
2022/03/09 10:44:14;;;;;;;3.97;3.67;;;;;;;;;;5073875;28;20232;-81
2022/03/09 10:46:47;;;;;;;3.97;3.45;;;;;;;;;;5073549;28;20684;-82
2022/03/09 10:49:16;;;;;;;4.03;3.60;;;;;;;;;;5062319;28;20217;-82
2022/03/09 10:51:45;;;;;;;3.50;3.20;;;;;;;;;;5054629;28;20206;-82
2022/03/09 10:54:16;;;;;;;3.63;3.33;;;;;;;;;;5054923;28;20230;-82
2022/03/09 10:56:46;;;;;;;3.75;3.42;;;;;;;;;;5054802;28;20293;-82
2022/03/09 10:59:17;;;;;;;4.10;3.30;;;;;;;;;;5064485;28;20208;-83
2022/03/09 11:02:01;;;;;;;4.25;3.28;;;;;;;;;;5073632;28;20217;-82
2022/03/09 11:04:28;;;;;;;4.40;4.00;;;;;;;;;;5073086;28;20224;-82
2022/03/09 11:06:58;;;;;;;4.15;3.75;;;;;;;;;;5071982;28;20589;-81
2022/03/09 11:09:26;;;;;;;3.78;3.17;;;;;;;;;;5072694;28;20216;-82
2022/03/09 11:11:55;;;;;;;3.50;3.20;;;;;;;;;;5071860;28;20669;-82
2022/03/09 11:14:26;;;;;;;3.17;2.88;;;;;;;;;;5071809;28;20721;-82
2022/03/09 11:16:57;;;;;;;2.80;2.55;;;;;;;;;;5072404;28;20342;-81
2022/03/09 11:19:25;;;;;;;3.53;3.15;;;;;;;;;;5047055;28;20570;-82
2022/03/09 11:21:53;;;;;;;3.50;3.20;;;;;;;;;;5051968;28;20244;-82
2022/03/09 11:24:20;;;;;;;3.80;3.50;;;;;;;;;;5053241;28;20236;-82
2022/03/09 11:26:51;;;;;;;3.63;3.22;;;;;;;;;;5052995;28;20304;-80
2022/03/09 11:29:31;;;;;;;3.97;3.58;;;;;;;;;;5053133;28;20297;-82
2022/03/09 11:31:58;;;;;;;3.70;3.40;;;;;;;;;;5053842;28;20267;-82
2022/03/09 11:34:38;;;;;;;3.38;3.08;;;;;;;;;;5053775;28;20222;-81
2022/03/09 11:37:08;;;;;;;3.50;3.13;;;;;;;;;;5054612;28;20209;-82
2022/03/09 11:39:37;;;;;;;3.70;3.40;;;;;;;;;;5057009;28;20213;-81
2022/03/09 11:42:34;;;;;;;2.95;2.75;;;;;;;;;;5056212;28;20206;-81
2022/03/09 11:45:40;;;;;;;4.95;3.90;;;;;;;;;;5056763;28;20229;-81
2022/03/09 11:48:12;;;;;;;3.00;2.80;;;;;;;;;;5055456;28;20238;-81
2022/03/09 11:51:13;;;;;;;3.60;3.13;;;;;;;;;;5056500;28;20287;-82
2022/03/09 11:53:53;;;;;;;3.75;2.50;;;;;;;;;;5055509;28;20623;-81
2022/03/09 11:56:35;;;;;;;3.45;2.90;;;;;;;;;;5056690;28;20206;-82
2022/03/09 11:59:28;;;;;;;3.40;3.10;;;;;;;;;;5057151;28;20206;-82
2022/03/09 12:02:18;;;;;;;2.75;2.47;;;;;;;;;;5043733;28;20209;-82
2022/03/09 12:05:04;;;;;;;2.20;2.00;;;;;;;;;;5056105;28;20221;-82
2022/03/09 12:07:50;;;;;;;2.63;2.42;;;;;;;;;;5057676;28;20209;-82
2022/03/09 12:10:21;;;;;;;2.25;2.05;;;;;;;;;;5050896;28;20197;-82
2022/03/09 12:13:13;;;;;;;3.00;2.65;;;;;;;;;;5057368;28;20269;-82
2022/03/09 12:16:17;;;;;;;2.05;1.92;;;;;;;;;;5057668;28;20206;-82
2022/03/09 12:19:14;;;;;;;2.42;2.25;;;;;;;;;;5056429;28;20220;-82
2022/03/09 12:22:08;;;;;;;2.40;2.20;;;;;;;;;;5021385;28;20206;-82
2022/03/09 12:24:39;;;;;;;2.20;1.98;;;;;;;;;;5006299;28;20587;-82
2022/03/09 12:27:28;;;;;;;4.07;2.58;;;;;;;;;;5056297;28;20211;-81
2022/03/09 12:29:55;;;;;;;2.85;2.65;;;;;;;;;;5059036;28;20589;-81
2022/03/09 12:32:23;;;;;;;3.20;2.90;;;;;;;;;;5075288;28;20216;-82
2022/03/09 12:34:53;;;;;;;3.80;3.30;;;;;;;;;;5074713;28;20483;-82
2022/03/09 12:37:26;;;;;;;3.00;2.80;;;;;;;;;;5049613;28;20216;-80
2022/03/09 12:40:01;;;;;;;3.00;2.80;;;;;;;;;;5050391;28;20205;-82
2022/03/09 12:42:31;;;;;;;3.53;3.22;;;;;;;;;;5055268;28;20665;-81
2022/03/09 12:45:00;;;;;;;2.80;2.60;;;;;;;;;;5056482;28;20231;-81
2022/03/09 12:47:28;;;;;;;3.33;3.03;;;;;;;;;;5055412;28;20217;-82
2022/03/09 12:49:56;;;;;;;2.45;2.25;;;;;;;;;;5055338;28;20214;-80
2022/03/09 12:52:24;;;;;;;2.22;2.03;;;;;;;;;;5054618;28;20206;-82
2022/03/09 12:54:54;;;;;;;2.50;2.30;;;;;;;;;;5054839;28;20271;-81
2022/03/09 12:57:25;;;;;;;2.50;2.28;;;;;;;;;;5055078;28;20209;-80
2022/03/09 13:00:01;;;;;;;2.95;2.72;;;;;;;;;;5055048;28;20637;-81
2022/03/09 13:02:44;;;;;;;2.38;2.17;;;;;;;;;;5055881;28;20681;-81
2022/03/09 13:05:15;;;;;;;2.58;2.38;;;;;;;;;;5056066;28;20646;-81
2022/03/09 13:07:55;;;;;;;3.20;2.88;;;;;;;;;;5051399;28;20205;-81
2022/03/09 13:10:23;;;;;;;2.70;2.50;;;;;;;;;;5051302;28;20728;-81
2022/03/09 13:12:53;;;;;;;3.05;2.67;;;;;;;;;;5054896;28;20201;-80
2022/03/09 13:15:22;;;;;;;3.50;3.13;;;;;;;;;;5055558;28;20228;-80
2022/03/09 13:17:51;;;;;;;3.78;3.25;;;;;;;;;;5054438;28;20297;-81
2022/03/09 13:20:20;;;;;;;3.00;2.70;;;;;;;;;;5055241;28;20212;-81
2022/03/09 13:22:49;;;;;;;3.10;2.80;;;;;;;;;;5054865;28;20601;-80
2022/03/09 13:25:17;;;;;;;3.50;3.20;;;;;;;;;;5054098;28;20312;-80
2022/03/09 13:27:45;;;;;;;3.85;3.22;;;;;;;;;;5054818;28;20214;-80
2022/03/09 13:30:22;;;;;;;3.88;3.03;;;;;;;;;;5055120;28;20814;-80
2022/03/09 13:32:50;;;;;;;2.55;2.15;;;;;;;;;;5054049;28;20212;-80
2022/03/09 13:35:21;;;;;;;2.40;2.20;;;;;;;;;;5053506;28;20222;-79
2022/03/09 13:37:50;;;;;;;2.20;2.10;;;;;;;;;;5053739;28;20211;-80
2022/03/09 13:40:17;;;;;;;2.53;2.33;;;;;;;;;;5053536;28;20202;-80
2022/03/09 13:42:46;;;;;;;2.75;2.53;;;;;;;;;;5054024;28;20205;-81
2022/03/09 13:45:16;;;;;;;2.53;2.33;;;;;;;;;;5053894;28;20316;-80
2022/03/09 13:47:49;;;;;;;2.20;2.00;;;;;;;;;;5054348;28;20206;-81
2022/03/09 13:50:24;;;;;;;2.92;2.72;;;;;;;;;;5053895;28;20217;-80
2022/03/09 13:52:53;;;;;;;2.83;2.60;;;;;;;;;;5048118;28;20260;-82
2022/03/09 13:55:27;;;;;;;2.80;2.60;;;;;;;;;;5056158;28;20616;-80
2022/03/09 13:58:07;;;;;;;2.47;2.28;;;;;;;;;;5065911;28;20419;-81
2022/03/09 14:00:37;;;;;;;2.45;2.25;;;;;;;;;;5059669;28;20197;-81
2022/03/09 14:03:13;;;;;;;2.50;2.30;;;;;;;;;;5058998;28;20424;-81
2022/03/09 14:05:44;;;;;;;2.58;2.38;;;;;;;;;;5056369;28;20233;-81
2022/03/09 14:08:23;;;;;;;2.97;2.78;;;;;;;;;;5059699;28;20217;-81
2022/03/09 14:10:52;;;;;;;2.60;2.40;;;;;;;;;;5059264;28;20233;-81
2022/03/09 14:13:20;;;;;;;2.65;2.42;;;;;;;;;;5055337;28;20251;-81
2022/03/09 14:15:48;;;;;;;2.63;2.42;;;;;;;;;;5056686;28;20205;-80
2022/03/09 14:18:15;;;;;;;1.83;1.73;;;;;;;;;;5053399;28;20212;-81
2022/03/09 14:20:44;;;;;;;2.53;2.33;;;;;;;;;;5073965;28;20201;-79
2022/03/09 14:23:14;;;;;;;2.75;2.55;;;;;;;;;;5061525;28;20236;-81
2022/03/09 14:25:42;;;;;;;2.50;2.30;;;;;;;;;;5048259;28;20244;-81
2022/03/09 14:28:10;;;;;;;2.55;2.35;;;;;;;;;;5054215;28;20205;-81
2022/03/09 14:30:37;;;;;;;2.00;1.77;;;;;;;;;;5047972;28;20207;-81
2022/03/09 14:33:05;;;;;;;1.50;1.40;;;;;;;;;;5047575;28;20206;-80
2022/03/09 14:35:32;;;;;;;2.13;1.92;;;;;;;;;;5046779;28;20221;-81
2022/03/09 14:38:00;;;;;;;2.28;1.83;;;;;;;;;;5048957;28;20209;-80
2022/03/09 14:40:29;;;;;;;1.60;1.50;;;;;;;;;;5049459;28;20209;-81
2022/03/09 14:42:56;;;;;;;4.55;2.42;;;;;;;;;;5048626;28;20209;-82
2022/03/09 14:45:25;;;;;;;2.38;2.17;;;;;;;;;;5048496;28;20233;-81
2022/03/09 14:47:52;;;;;;;2.15;1.95;;;;;;;;;;5048943;28;20292;-80
2022/03/09 14:50:20;;;;;;;2.85;2.65;;;;;;;;;;5054682;28;20217;-80
2022/03/09 14:52:48;;;;;;;2.13;1.92;;;;;;;;;;5047380;28;20288;-80
2022/03/09 14:55:17;;;;;;;2.30;2.10;;;;;;;;;;5072450;28;20228;-81
2022/03/09 14:57:47;;;;;;;2.47;2.28;;;;;;;;;;5054411;28;20205;-81
2022/03/09 15:00:19;;;;;;;2.60;2.40;;;;;;;;;;5061649;28;20247;-81
2022/03/09 15:02:46;;;;;;;2.53;2.33;;;;;;;;;;5072952;28;20212;-80